createdAt,value
2018-06-21T00:00:18.624Z,2.50
2018-06-21T00:02:46.477Z,3.67
2018-06-21T00:05:14.341Z,3.93
2018-06-21T00:07:42.201Z,3.50
2018-06-21T00:10:10.124Z,5.27
2018-06-21T00:12:37.954Z,5.07
2018-06-21T00:15:05.837Z,5.25
2018-06-21T00:17:33.717Z,6.47
2018-06-21T00:20:01.589Z,6.10
2018-06-21T00:22:29.490Z,6.03
2018-06-21T00:24:57.348Z,5.47
2018-06-21T00:27:25.208Z,6.00
2018-06-21T00:29:53.045Z,7.17
2018-06-21T00:32:20.895Z,5.63
2018-06-21T00:34:48.732Z,7.05
2018-06-21T00:42:09.119Z,6.20
2018-06-21T00:44:37.016Z,7.00
2018-06-21T00:47:10.888Z,6.50
2018-06-21T00:49:44.768Z,9.07
2018-06-21T00:52:12.623Z,9.00
2018-06-21T00:54:40.464Z,7.57
2018-06-21T00:57:08.424Z,6.95
2018-06-21T00:59:37.351Z,8.40
2018-06-21T01:02:05.227Z,8.23
2018-06-21T01:04:33.135Z,12.37
2018-06-21T01:07:01.026Z,9.87
2018-06-21T01:09:29.236Z,9.87
2018-06-21T01:11:57.328Z,10.13
2018-06-21T01:14:25.286Z,7.13
2018-06-21T01:16:53.291Z,8.70
2018-06-21T01:19:21.268Z,7.87
2018-06-21T01:21:49.258Z,7.07
2018-06-21T01:24:17.184Z,7.53
2018-06-21T01:26:46.115Z,8.13
2018-06-21T01:29:14.092Z,9.37
2018-06-21T01:31:42.180Z,9.20
2018-06-21T01:34:10.096Z,10.40
2018-06-21T01:36:38.682Z,12.63
2018-06-21T01:39:07.755Z,11.07
2018-06-21T01:41:35.751Z,10.67
2018-06-21T01:44:03.748Z,11.63
2018-06-21T01:49:04.182Z,9.60
2018-06-21T01:51:58.263Z,13.13
2018-06-21T01:54:26.152Z,16.00
2018-06-21T01:56:54.040Z,13.20
2018-06-21T01:59:21.880Z,16.93
2018-06-21T02:01:49.715Z,13.13
2018-06-21T02:04:17.547Z,16.42
2018-06-21T02:06:45.423Z,12.53
2018-06-21T02:09:13.245Z,19.45
2018-06-21T02:11:41.082Z,15.27
2018-06-21T02:14:08.921Z,12.63
2018-06-21T02:16:36.771Z,14.90
2018-06-21T02:19:05.604Z,14.67
2018-06-21T02:21:33.402Z,14.37
2018-06-21T02:24:01.255Z,16.70
2018-06-21T02:26:30.077Z,15.03
2018-06-21T02:28:57.941Z,16.07
2018-06-21T02:31:25.791Z,16.82
2018-06-21T02:33:53.726Z,13.15
2018-06-21T02:36:21.551Z,16.90
2018-06-21T02:38:49.355Z,15.27
2018-06-21T02:41:17.184Z,16.73
2018-06-21T02:43:51.016Z,14.90
2018-06-21T02:46:25.951Z,13.83
2018-06-21T02:48:53.751Z,12.70
2018-06-21T02:51:21.601Z,21.00
2018-06-21T02:54:06.188Z,17.90
2018-06-21T02:58:59.418Z,14.37
2018-06-21T03:01:27.536Z,14.87
2018-06-21T03:03:55.448Z,11.20
2018-06-21T03:06:23.471Z,14.93
2018-06-21T03:08:51.292Z,11.73
2018-06-21T03:11:19.158Z,17.90
2018-06-21T03:13:46.981Z,17.10
2018-06-21T03:16:14.807Z,11.13
2018-06-21T03:18:42.604Z,16.73
2018-06-21T03:21:11.394Z,11.77
2018-06-21T03:23:39.193Z,9.73
2018-06-21T03:26:07.011Z,13.03
2018-06-21T03:28:34.823Z,15.30
2018-06-21T03:31:02.697Z,14.50
2018-06-21T03:33:30.536Z,13.17
2018-06-21T03:37:28.899Z,13.17
2018-06-21T03:39:56.694Z,9.40
2018-06-21T03:42:24.522Z,8.93
2018-06-21T03:44:52.320Z,11.03
2018-06-21T03:47:20.117Z,13.00
2018-06-21T03:49:47.949Z,10.67
2018-06-21T03:52:15.829Z,10.10
2018-06-21T03:54:43.626Z,12.07
2018-06-21T03:57:11.428Z,8.87
2018-06-21T03:59:39.402Z,9.90
2018-06-21T04:04:32.815Z,7.57
2018-06-21T04:07:00.898Z,9.17
2018-06-21T04:09:28.878Z,8.37
2018-06-21T04:14:22.139Z,9.93
2018-06-21T04:16:49.950Z,11.47
2018-06-21T04:19:17.794Z,5.20
2018-06-21T04:21:45.585Z,12.27
2018-06-21T04:24:13.400Z,7.30
2018-06-21T04:26:41.253Z,6.77
2018-06-21T04:29:09.052Z,6.93
2018-06-21T04:31:36.869Z,8.23
2018-06-21T04:34:04.702Z,12.77
2018-06-21T04:36:38.584Z,4.63
2018-06-21T04:39:12.347Z,7.30
2018-06-21T04:41:40.177Z,6.80
2018-06-21T04:44:07.958Z,3.07
2018-06-21T04:46:35.756Z,2.67
2018-06-21T04:49:03.625Z,6.97
2018-06-21T04:51:31.452Z,6.10
2018-06-21T04:53:59.442Z,7.93
2018-06-21T04:56:27.284Z,7.37
2018-06-21T04:58:55.087Z,4.77
2018-06-21T05:01:22.913Z,7.47
2018-06-21T05:03:50.755Z,4.57
2018-06-21T05:06:18.807Z,3.23
2018-06-21T05:08:46.787Z,7.93
2018-06-21T05:11:14.706Z,3.03
2018-06-21T05:13:42.700Z,6.73
2018-06-21T05:16:10.696Z,6.40
2018-06-21T05:18:38.718Z,7.33
2018-06-21T05:21:06.730Z,6.50
2018-06-21T05:23:34.762Z,7.00
2018-06-21T05:26:02.729Z,9.50
2018-06-21T05:28:30.679Z,7.47
2018-06-21T05:30:58.507Z,3.83
2018-06-21T05:33:26.227Z,4.93
2018-06-21T05:35:54.007Z,5.87
2018-06-21T05:38:22.758Z,9.23
2018-06-21T05:40:50.462Z,6.87
2018-06-21T05:43:18.179Z,7.73
2018-06-21T05:45:45.933Z,10.53
2018-06-21T05:48:13.649Z,7.90
2018-06-21T05:50:41.369Z,7.50
2018-06-21T05:53:09.196Z,4.87
2018-06-21T05:55:36.936Z,13.40
2018-06-21T05:58:05.691Z,9.97
2018-06-21T06:00:33.476Z,9.80
2018-06-21T06:03:01.216Z,7.80
2018-06-21T06:05:28.919Z,8.70
2018-06-21T06:07:56.707Z,5.80
2018-06-21T06:10:40.882Z,6.03
2018-06-21T06:13:08.820Z,5.90
2018-06-21T06:15:36.734Z,4.33
2018-06-21T06:18:05.571Z,2.77
2018-06-21T06:20:33.420Z,5.83
2018-06-21T06:23:01.156Z,3.50
2018-06-21T06:25:28.929Z,7.47
2018-06-21T06:27:56.697Z,5.37
2018-06-21T06:30:24.463Z,8.10
2018-06-21T06:32:52.220Z,8.87
2018-06-21T06:35:20.048Z,5.73
2018-06-21T06:37:47.801Z,5.83
2018-06-21T06:40:15.567Z,6.40
2018-06-21T06:42:43.310Z,4.37
2018-06-21T06:45:11.067Z,4.60
2018-06-21T06:47:38.778Z,4.97
2018-06-21T06:50:06.553Z,3.13
2018-06-21T06:52:34.315Z,1.37
2018-06-21T06:55:02.076Z,4.70
2018-06-21T06:57:29.804Z,2.87
2018-06-21T06:59:57.669Z,8.00
2018-06-21T07:02:25.481Z,3.43
2018-06-21T07:04:53.207Z,2.00
2018-06-21T07:07:20.994Z,5.53
2018-06-21T07:09:48.756Z,12.67
2018-06-21T07:12:16.537Z,3.90
2018-06-21T07:15:12.195Z,3.10
2018-06-21T07:17:40.299Z,3.23
2018-06-21T07:20:08.200Z,5.70
2018-06-21T07:22:36.122Z,1.80
2018-06-21T07:25:03.991Z,1.83
2018-06-21T07:27:32.962Z,2.87
2018-06-21T07:32:29.554Z,3.17
2018-06-21T07:34:57.374Z,1.50
2018-06-21T07:37:25.125Z,1.57
2018-06-21T07:39:52.968Z,6.10
2018-06-21T07:42:20.711Z,13.73
2018-06-21T07:44:48.453Z,4.23
2018-06-21T07:47:16.208Z,8.00
2018-06-21T07:49:43.931Z,3.57
2018-06-21T07:52:11.703Z,4.10
2018-06-21T07:54:39.450Z,8.17
2018-06-21T07:57:07.170Z,3.47
2018-06-21T07:59:35.801Z,3.70
2018-06-21T08:02:03.687Z,5.40
2018-06-21T08:04:31.451Z,4.23
2018-06-21T08:06:59.204Z,4.63
2018-06-21T08:09:27.953Z,6.07
2018-06-21T08:11:55.682Z,2.87
2018-06-21T08:14:23.413Z,2.33
2018-06-21T08:16:51.322Z,2.67
2018-06-21T08:19:20.525Z,3.98
2018-06-21T08:21:48.500Z,5.80
2018-06-21T08:24:16.448Z,3.02
2018-06-21T08:26:44.314Z,5.58
2018-06-21T08:29:12.040Z,4.73
2018-06-21T08:31:39.953Z,5.78
2018-06-21T08:34:07.714Z,2.98
2018-06-21T08:36:35.628Z,3.98
2018-06-21T08:39:05.121Z,5.08
2018-06-21T08:41:33.739Z,5.47
2018-06-21T08:44:01.492Z,3.77
2018-06-21T08:46:29.352Z,4.70
2018-06-21T08:48:57.140Z,6.73
2018-06-21T08:51:24.907Z,4.40
2018-06-21T08:53:52.859Z,3.00
2018-06-21T08:56:20.650Z,2.15
2018-06-21T08:58:48.624Z,3.27
2018-06-21T09:01:16.357Z,3.80
2018-06-21T09:03:44.165Z,2.37
2018-06-21T09:06:12.060Z,5.40
2018-06-21T09:08:39.832Z,2.20
2018-06-21T09:11:08.602Z,6.17
2018-06-21T09:13:37.222Z,3.40
2018-06-21T09:16:06.485Z,7.53
2018-06-21T09:18:34.265Z,0.87
2018-06-21T09:21:02.228Z,5.13
2018-06-21T09:26:17.611Z,1.40
2018-06-21T09:28:45.475Z,3.53
2018-06-21T09:31:13.341Z,1.55
2018-06-21T09:33:42.523Z,3.85
2018-06-21T09:36:10.433Z,3.20
2018-06-21T09:38:43.889Z,4.30
2018-06-21T09:41:17.246Z,1.10
2018-06-21T09:44:03.823Z,2.00
2018-06-21T09:46:33.877Z,3.23
2018-06-21T09:48:54.329Z,2.13
2018-06-21T09:51:22.652Z,2.93
2018-06-21T09:53:50.554Z,3.43
2018-06-21T09:56:18.426Z,7.78
2018-06-21T09:58:46.317Z,3.50
2018-06-21T10:01:14.697Z,5.90
2018-06-21T10:03:42.743Z,1.77
2018-06-21T10:06:10.710Z,2.23
2018-06-21T10:08:38.664Z,3.37
2018-06-21T10:11:06.691Z,4.12
2018-06-21T10:13:34.644Z,1.80
2018-06-21T10:16:02.646Z,2.62
2018-06-21T10:18:31.532Z,5.83
2018-06-21T10:20:59.435Z,3.13
2018-06-21T10:23:27.345Z,4.03
2018-06-21T10:25:55.285Z,3.83
2018-06-21T10:28:23.206Z,3.27
2018-06-21T10:30:51.166Z,4.92
2018-06-21T10:33:18.917Z,1.80
2018-06-21T10:35:46.823Z,0.87
2018-06-21T10:38:14.565Z,1.42
2018-06-21T10:40:42.344Z,5.70
2018-06-21T10:43:10.158Z,3.17
2018-06-21T10:45:38.063Z,3.60
2018-06-21T10:48:05.828Z,1.00
2018-06-21T10:50:33.637Z,2.27
2018-06-21T10:53:01.420Z,4.08
2018-06-21T10:55:29.359Z,2.22
2018-06-21T10:57:57.135Z,3.02
2018-06-21T11:00:25.083Z,4.47
2018-06-21T11:02:52.935Z,1.60
2018-06-21T11:05:20.710Z,6.08
2018-06-21T11:07:48.463Z,1.98
2018-06-21T11:10:16.237Z,4.25
2018-06-21T11:12:44.021Z,5.63
2018-06-21T11:15:12.828Z,7.97
2018-06-21T11:17:40.669Z,3.93
2018-06-21T11:20:08.446Z,4.25
2018-06-21T11:22:36.184Z,4.87
2018-06-21T11:25:03.982Z,6.30
2018-06-21T11:27:31.815Z,7.07
2018-06-21T11:29:59.579Z,3.47
2018-06-21T11:32:28.000Z,4.62
2018-06-21T11:35:06.706Z,5.83
2018-06-21T11:37:34.638Z,6.60
2018-06-21T11:40:02.563Z,5.62
2018-06-21T11:42:31.445Z,2.03
2018-06-21T11:44:59.338Z,8.47
2018-06-21T11:47:27.170Z,5.58
2018-06-21T11:49:55.053Z,3.23
2018-06-21T11:52:22.891Z,5.50
2018-06-21T11:54:50.758Z,5.63
2018-06-21T11:57:18.589Z,4.00
2018-06-21T11:59:46.401Z,2.90
2018-06-21T12:02:14.230Z,3.93
2018-06-21T12:04:43.486Z,1.43
2018-06-21T12:07:11.352Z,1.13
2018-06-21T12:09:39.123Z,4.97
2018-06-21T12:12:07.001Z,3.43
2018-06-21T12:14:35.691Z,2.37
2018-06-21T12:17:03.524Z,3.47
2018-06-21T12:19:31.348Z,3.02
2018-06-21T12:21:59.187Z,2.85
2018-06-21T12:24:26.977Z,2.95
2018-06-21T12:26:54.733Z,3.50
2018-06-21T12:29:22.528Z,11.97
2018-06-21T12:31:51.314Z,1.40
2018-06-21T12:34:19.107Z,4.35
2018-06-21T12:36:46.955Z,4.50
2018-06-21T12:39:14.746Z,3.75
2018-06-21T12:41:42.665Z,1.70
2018-06-21T12:44:11.611Z,1.32
2018-06-21T12:46:46.855Z,7.07
2018-06-21T12:49:14.835Z,3.60
2018-06-21T12:51:42.704Z,1.20
2018-06-21T12:54:13.804Z,3.87
2018-06-21T12:56:41.817Z,2.50
2018-06-21T12:59:09.736Z,6.13
2018-06-21T13:01:37.731Z,7.15
2018-06-21T13:04:05.540Z,5.27
2018-06-21T13:06:33.357Z,6.10
2018-06-21T13:09:12.449Z,2.12
2018-06-21T13:13:49.530Z,5.53
2018-06-21T13:16:18.564Z,4.12
2018-06-21T13:18:46.352Z,6.10
2018-06-21T13:21:14.105Z,3.10
2018-06-21T13:23:41.869Z,7.92
2018-06-21T13:26:09.775Z,5.03
2018-06-21T13:28:37.549Z,4.00
2018-06-21T13:31:05.318Z,6.03
2018-06-21T13:33:33.113Z,2.87
2018-06-21T13:36:00.856Z,2.33
2018-06-21T13:38:28.599Z,2.22
2018-06-21T13:40:56.390Z,1.67
2018-06-21T13:43:24.172Z,1.92
2018-06-21T13:45:52.093Z,5.03
2018-06-21T13:48:21.032Z,1.45
2018-06-21T13:51:02.198Z,4.70
2018-06-21T13:53:30.093Z,3.30
2018-06-21T13:56:02.558Z,1.37
2018-06-21T13:58:30.408Z,1.92
2018-06-21T14:00:58.465Z,2.08
2018-06-21T14:03:40.543Z,3.02
2018-06-21T14:06:08.358Z,2.80
2018-06-21T14:08:36.500Z,3.33
2018-06-21T14:11:03.987Z,4.70
2018-06-21T14:13:31.782Z,2.42
2018-06-21T14:15:59.586Z,2.70
2018-06-21T14:18:28.356Z,2.75
2018-06-21T14:20:56.214Z,2.87
2018-06-21T14:23:23.933Z,8.13
2018-06-21T14:25:51.766Z,2.10
2018-06-21T14:28:19.526Z,2.62
2018-06-21T14:30:47.318Z,5.93
2018-06-21T14:33:16.095Z,7.77
2018-06-21T14:35:43.881Z,2.60
2018-06-21T14:38:12.203Z,4.87
2018-06-21T14:40:40.010Z,2.97
2018-06-21T14:43:07.854Z,7.13
2018-06-21T14:45:35.695Z,7.03
2018-06-21T14:48:03.633Z,5.80
2018-06-21T14:50:31.329Z,6.83
2018-06-21T14:52:59.271Z,7.83
2018-06-21T14:55:27.293Z,3.97
2018-06-21T14:57:55.171Z,7.30
2018-06-21T15:00:23.192Z,11.87
2018-06-21T15:02:51.110Z,7.10
2018-06-21T15:05:19.147Z,10.90
2018-06-21T15:07:47.025Z,7.03
2018-06-21T15:10:14.959Z,5.07
2018-06-21T15:12:43.038Z,4.40
2018-06-21T15:15:11.152Z,9.17
2018-06-21T15:17:39.065Z,3.67
2018-06-21T15:20:07.203Z,7.70
2018-06-21T15:22:35.135Z,5.33
2018-06-21T15:25:03.226Z,6.80
2018-06-21T15:27:31.210Z,9.37
2018-06-21T15:29:59.376Z,3.37
2018-06-21T15:32:27.274Z,4.23
2018-06-21T15:34:55.393Z,6.50
2018-06-21T15:37:23.302Z,8.53
2018-06-21T15:39:51.304Z,5.70
2018-06-21T15:44:46.428Z,4.67
2018-06-21T15:47:14.263Z,6.10
2018-06-21T15:49:42.024Z,5.17
2018-06-21T15:52:09.803Z,5.58
2018-06-21T15:54:37.566Z,11.35
2018-06-21T15:57:05.333Z,6.30
2018-06-21T16:02:05.977Z,3.97
2018-06-21T16:04:33.926Z,7.03
2018-06-21T16:07:03.188Z,3.90
2018-06-21T16:09:39.223Z,3.80
2018-06-21T16:12:07.210Z,3.07
2018-06-21T16:14:35.296Z,4.73
2018-06-21T16:17:03.228Z,4.37
2018-06-21T16:19:31.318Z,6.07
2018-06-21T16:21:59.187Z,4.27
2018-06-21T16:24:26.833Z,3.87
2018-06-21T16:26:54.679Z,1.60
2018-06-21T16:29:22.508Z,7.30
2018-06-21T16:31:50.457Z,4.23
2018-06-21T16:34:18.201Z,4.07
2018-06-21T16:36:46.520Z,6.67
2018-06-21T16:39:14.380Z,3.30
2018-06-21T16:41:43.258Z,4.03
2018-06-21T16:44:11.060Z,2.60
2018-06-21T16:46:38.878Z,4.40
2018-06-21T16:49:06.757Z,2.73
2018-06-21T16:51:34.511Z,2.90
2018-06-21T16:54:02.314Z,6.90
2018-06-21T16:56:30.069Z,3.50
2018-06-21T16:58:57.886Z,6.50
2018-06-21T17:01:25.639Z,6.43
2018-06-21T17:06:18.821Z,2.70
2018-06-21T17:08:50.648Z,4.60
2018-06-21T17:11:29.340Z,5.23
2018-06-21T17:16:27.520Z,4.00
2018-06-21T17:18:55.340Z,1.87
2018-06-21T17:21:23.458Z,4.20
2018-06-21T17:23:51.203Z,0.97
2018-06-21T17:26:19.055Z,5.10
2018-06-21T17:28:46.803Z,5.53
2018-06-21T17:31:14.569Z,2.50
2018-06-21T17:33:42.336Z,5.20
2018-06-21T17:36:10.174Z,3.20
2018-06-21T17:38:37.943Z,6.47
2018-06-21T17:41:05.706Z,6.60
2018-06-21T17:43:33.452Z,3.90
2018-06-21T17:46:01.216Z,4.13
2018-06-21T17:48:28.991Z,3.37
2018-06-21T17:50:56.749Z,3.77
2018-06-21T17:53:24.492Z,7.57
2018-06-21T17:55:52.258Z,5.93
2018-06-21T17:58:20.041Z,4.20
2018-06-21T18:00:48.959Z,4.90
2018-06-21T18:03:20.433Z,5.97
2018-06-21T18:05:48.292Z,4.73
2018-06-21T18:08:16.133Z,2.17
2018-06-21T18:10:43.949Z,2.50
2018-06-21T18:13:11.763Z,4.30
2018-06-21T18:15:39.534Z,4.83
2018-06-21T18:18:07.410Z,4.23
2018-06-21T18:20:35.249Z,7.50
2018-06-21T18:23:03.011Z,3.17
2018-06-21T18:25:30.934Z,2.10
2018-06-21T18:27:59.576Z,2.17
2018-06-21T18:30:27.410Z,3.63
2018-06-21T18:32:55.246Z,13.57
2018-06-21T18:35:23.234Z,4.03
2018-06-21T18:37:51.115Z,7.50
2018-06-21T18:40:18.958Z,6.27
2018-06-21T18:42:46.744Z,6.50
2018-06-21T18:45:14.552Z,6.17
2018-06-21T18:47:42.335Z,4.97
2018-06-21T18:50:10.172Z,6.20
2018-06-21T18:52:38.006Z,2.77
2018-06-21T18:55:05.815Z,3.77
2018-06-21T18:57:33.615Z,3.80
2018-06-21T19:00:01.379Z,3.23
2018-06-21T19:02:29.296Z,3.57
2018-06-21T19:04:57.089Z,5.53
2018-06-21T19:07:30.590Z,3.98
2018-06-21T19:10:04.153Z,3.63
2018-06-21T19:12:32.231Z,6.70
2018-06-21T19:15:12.354Z,5.35
2018-06-21T19:17:40.421Z,5.17
2018-06-21T19:20:08.459Z,5.90
2018-06-21T19:22:36.490Z,4.53
2018-06-21T19:25:04.584Z,4.60
2018-06-21T19:27:46.289Z,7.00
2018-06-21T19:32:39.520Z,4.20
2018-06-21T19:35:07.321Z,5.60
2018-06-21T19:37:35.115Z,5.60
2018-06-21T19:40:03.239Z,4.17
2018-06-21T19:42:32.218Z,5.20
2018-06-21T19:45:00.157Z,10.13
2018-06-21T19:47:27.923Z,3.90
2018-06-21T19:49:56.030Z,3.97
2018-06-21T19:52:23.852Z,9.83
2018-06-21T19:54:51.823Z,5.30
2018-06-21T19:57:19.817Z,3.00
2018-06-21T19:59:47.757Z,7.43
2018-06-21T20:02:15.564Z,4.07
2018-06-21T20:04:43.467Z,8.17
2018-06-21T20:07:11.309Z,7.10
2018-06-21T20:09:39.223Z,9.90
2018-06-21T20:12:07.220Z,7.60
2018-06-21T20:14:40.677Z,4.97
2018-06-21T20:17:08.682Z,5.33
2018-06-21T20:20:18.407Z,5.43
2018-06-21T20:22:49.989Z,3.23
2018-06-21T20:25:19.011Z,5.80
2018-06-21T20:27:46.994Z,4.40
2018-06-21T20:30:14.951Z,5.60
2018-06-21T20:32:42.851Z,6.93
2018-06-21T20:37:36.287Z,3.73
2018-06-21T20:40:07.985Z,5.87
2018-06-21T20:42:37.550Z,5.13
2018-06-21T20:45:05.506Z,6.43
2018-06-21T20:47:33.334Z,6.67
2018-06-21T20:50:01.120Z,4.53
2018-06-21T20:52:29.892Z,4.63
2018-06-21T20:54:58.810Z,6.43
2018-06-21T20:57:27.553Z,9.13
2018-06-21T20:59:55.431Z,7.60
2018-06-21T21:02:23.326Z,4.83
2018-06-21T21:05:09.036Z,8.83
2018-06-21T21:07:37.430Z,4.83
2018-06-21T21:10:09.624Z,7.03
2018-06-21T21:12:37.622Z,6.03
2018-06-21T21:15:06.276Z,8.53
2018-06-21T21:18:01.094Z,12.10
2018-06-21T21:20:29.176Z,5.13
2018-06-21T21:22:57.022Z,9.80
2018-06-21T21:25:24.871Z,8.07
2018-06-21T21:27:52.632Z,7.10
2018-06-21T21:30:20.506Z,7.87
2018-06-21T21:32:48.239Z,5.93
2018-06-21T21:35:16.163Z,8.63
2018-06-21T21:37:44.010Z,4.80
2018-06-21T21:40:11.960Z,4.13
2018-06-21T21:42:39.717Z,11.07
2018-06-21T21:45:07.553Z,9.10
2018-06-21T21:47:35.337Z,10.10
2018-06-21T21:50:03.296Z,7.20
2018-06-21T21:52:31.070Z,6.50
2018-06-21T21:54:58.830Z,9.07
2018-06-21T21:57:26.727Z,4.40
2018-06-21T21:59:54.456Z,8.30
2018-06-21T22:02:22.218Z,5.37
2018-06-21T22:04:49.986Z,8.20
2018-06-21T22:07:17.879Z,10.97
2018-06-21T22:09:45.650Z,8.67
2018-06-21T22:12:13.571Z,4.80
2018-06-21T22:14:41.363Z,5.93
2018-06-21T22:17:09.234Z,9.33
2018-06-21T22:19:37.013Z,8.20
2018-06-21T22:22:25.685Z,14.17
2018-06-21T22:24:53.551Z,4.73
2018-06-21T22:27:29.198Z,7.93
2018-06-21T22:29:57.104Z,5.70
2018-06-21T22:32:25.037Z,8.10
2018-06-21T22:34:52.859Z,7.50
2018-06-21T22:37:20.728Z,7.83
2018-06-21T22:39:48.444Z,8.40
2018-06-21T22:42:16.258Z,6.40
2018-06-21T22:44:44.057Z,5.87
2018-06-21T22:47:12.950Z,9.00
2018-06-21T22:49:40.677Z,6.77
2018-06-21T22:52:08.542Z,7.13
2018-06-21T22:54:36.252Z,7.17
2018-06-21T22:57:04.012Z,12.30
2018-06-21T22:59:31.791Z,5.30
2018-06-21T23:01:59.583Z,9.40
2018-06-21T23:04:27.330Z,7.30
2018-06-21T23:06:55.069Z,4.03
2018-06-21T23:09:22.851Z,6.37
2018-06-21T23:11:50.561Z,4.77
2018-06-21T23:14:18.366Z,9.07
2018-06-21T23:16:46.090Z,7.57
2018-06-21T23:19:23.449Z,7.37
2018-06-21T23:21:51.203Z,12.03
2018-06-21T23:24:18.948Z,3.83
2018-06-21T23:26:46.693Z,9.90
2018-06-21T23:29:24.208Z,4.20
2018-06-21T23:31:52.194Z,7.10
2018-06-21T23:34:30.117Z,4.80
2018-06-21T23:36:57.946Z,10.00
2018-06-21T23:39:25.764Z,9.23
2018-06-21T23:41:53.602Z,12.67
2018-06-21T23:44:21.362Z,10.40
2018-06-21T23:46:49.168Z,7.37
2018-06-21T23:49:16.913Z,7.53
2018-06-21T23:51:44.762Z,4.43
2018-06-21T23:54:13.326Z,9.27
2018-06-21T23:56:42.045Z,9.27
2018-06-21T23:59:09.784Z,6.00
